Time;durP1;ratioP1;P1;durP2;ratioP2;P2;SDS_P1;SDS_P2;PMS_P1;PMS_P2;Temp;Humidity;BMP_temperature;BMP_pressure;BME280_temperature;BME280_humidity;BME280_pressure;Samples;Min_cycle;Max_cycle;Signal;HPM_P1;HPM_P2
2023/05/06 00:01:20;;;;;;;14.47;8.80;;;16.00;99.90;;;;;;4987332;28;20495;-82
2023/05/06 00:04:33;;;;;;;13.47;9.20;;;16.00;99.90;;;;;;4985243;28;20475;-82
2023/05/06 00:07:18;;;;;;;14.17;9.53;;;16.00;99.90;;;;;;4990687;28;20519;-82
2023/05/06 00:10:03;;;;;;;13.33;9.00;;;15.80;99.90;;;;;;4983791;28;20491;-83
2023/05/06 00:12:35;;;;;;;13.47;9.13;;;15.90;99.90;;;;;;4995514;28;20457;-82
2023/05/06 00:15:20;;;;;;;12.87;8.80;;;15.80;99.90;;;;;;4996010;28;20512;-81
2023/05/06 00:18:05;;;;;;;13.50;9.20;;;15.80;99.90;;;;;;4985063;28;20483;-83
2023/05/06 00:20:53;;;;;;;13.23;8.97;;;15.70;99.90;;;;;;4984868;28;20463;-82
2023/05/06 00:23:41;;;;;;;14.47;9.40;;;15.60;99.90;;;;;;4984615;28;20457;-82
2023/05/06 00:26:22;;;;;;;12.20;9.00;;;15.70;99.90;;;;;;4984190;28;20447;-82
2023/05/06 00:28:56;;;;;;;13.63;8.57;;;15.60;99.90;;;;;;4983039;28;20487;-82
2023/05/06 00:35:06;;;;;;;14.10;9.60;;;15.50;99.90;;;;;;4972871;28;20485;-83
2023/05/06 00:38:08;;;;;;;10.07;7.60;;;15.60;99.90;;;;;;4974091;28;20456;-83
2023/05/06 00:40:54;;;;;;;;;;;;;;;;;;;;;
2023/05/06 00:43:31;;;;;;;12.47;8.53;;;15.30;99.90;;;;;;4980631;28;20444;-83
2023/05/06 00:46:12;;;;;;;11.47;8.53;;;15.20;99.90;;;;;;4972157;28;20461;-83
2023/05/06 00:48:53;;;;;;;15.53;8.77;;;15.20;99.90;;;;;;4994023;28;20559;-83
2023/05/06 00:51:31;;;;;;;10.60;7.60;;;15.20;99.90;;;;;;4985585;28;20673;-83
2023/05/06 00:54:29;;;;;;;13.20;9.33;;;15.30;99.90;;;;;;4991185;28;20484;-82
2023/05/06 00:57:05;;;;;;;11.53;8.43;;;15.10;99.90;;;;;;4981174;28;20552;-82
2023/05/06 00:59:34;;;;;;;9.87;7.77;;;15.30;99.90;;;;;;4977072;28;20482;-82
2023/05/06 01:02:39;;;;;;;12.53;8.90;;;15.40;99.90;;;;;;4984197;28;20436;-82
2023/05/06 01:05:24;;;;;;;11.33;9.10;;;15.40;99.90;;;;;;4980450;28;20445;-83
2023/05/06 01:08:33;;;;;;;9.97;8.53;;;15.30;99.90;;;;;;4989173;28;20444;-83
2023/05/06 01:11:47;;;;;;;15.37;9.30;;;15.30;99.90;;;;;;4998014;28;20542;-84
2023/05/06 01:15:19;;;;;;;12.17;8.13;;;15.30;99.90;;;;;;4965703;28;20488;-82
2023/05/06 01:18:25;;;;;;;12.50;10.10;;;15.20;99.90;;;;;;4974885;28;20460;-82
2023/05/06 01:21:17;;;;;;;14.70;9.33;;;15.20;99.90;;;;;;4981578;28;20547;-83
2023/05/06 01:24:06;;;;;;;11.33;8.30;;;15.10;99.90;;;;;;4970411;28;20464;-82
2023/05/06 01:26:47;;;;;;;15.13;8.53;;;15.10;99.90;;;;;;4979259;28;20797;-83
2023/05/06 01:29:31;;;;;;;11.50;7.87;;;15.10;99.90;;;;;;4982045;28;20494;-82
2023/05/06 01:32:55;;;;;;;;;;;;;;;;;;;;;
2023/05/06 01:38:41;;;;;;;12.27;8.00;;;15.20;99.90;;;;;;4957441;28;20488;-84
2023/05/06 01:41:27;;;;;;;12.63;8.80;;;15.30;99.90;;;;;;4989973;28;21348;-84
2023/05/06 01:44:10;;;;;;;12.77;9.10;;;15.30;99.90;;;;;;4970954;28;20460;-84
2023/05/06 01:47:14;;;;;;;13.90;9.40;;;15.30;99.90;;;;;;4972619;28;20568;-84
2023/05/06 01:49:50;;;;;;;11.33;8.43;;;15.20;99.90;;;;;;4975678;28;20547;-83
2023/05/06 01:52:33;;;;;;;12.20;8.47;;;15.00;99.90;;;;;;4989042;28;20500;-84
2023/05/06 01:55:11;;;;;;;10.27;7.97;;;14.90;99.90;;;;;;4977648;28;20511;-83
2023/05/06 01:58:08;;;;;;;12.20;9.10;;;14.90;99.90;;;;;;4981274;28;20456;-83
2023/05/06 02:00:41;;;;;;;14.20;8.83;;;15.10;99.90;;;;;;4970784;28;21000;-82
2023/05/06 02:03:16;;;;;;;12.10;8.53;;;14.90;99.90;;;;;;4988525;28;20460;-84
2023/05/06 02:06:03;;;;;;;9.77;8.30;;;14.90;99.90;;;;;;4978370;28;20536;-84
2023/05/06 02:08:47;;;;;;;10.50;8.07;;;14.80;99.90;;;;;;4954642;28;20451;-81
2023/05/06 02:11:33;;;;;;;12.70;7.90;;;14.80;99.90;;;;;;4963932;28;20500;-81
2023/05/06 02:14:14;;;;;;;11.90;9.20;;;14.90;99.90;;;;;;4969397;28;20483;-81
2023/05/06 02:16:55;;;;;;;12.20;8.17;;;14.90;99.90;;;;;;4964748;28;20544;-82
2023/05/06 02:19:36;;;;;;;12.57;8.73;;;14.70;99.90;;;;;;4973884;28;20524;-83
2023/05/06 02:22:39;;;;;;;12.53;8.47;;;14.70;99.90;;;;;;4973414;28;20520;-83
2023/05/06 02:25:22;;;;;;;11.80;8.20;;;14.70;99.90;;;;;;4985352;28;20448;-83
2023/05/06 02:27:53;;;;;;;11.27;7.77;;;14.60;99.90;;;;;;4978693;28;20476;-84
2023/05/06 02:30:25;;;;;;;12.03;8.40;;;14.50;99.90;;;;;;4973382;28;21083;-84
2023/05/06 02:33:10;;;;;;;10.07;8.13;;;14.50;99.90;;;;;;4977405;28;20455;-83
2023/05/06 02:35:37;;;;;;;13.03;7.87;;;14.50;99.90;;;;;;4968764;28;20484;-86
2023/05/06 02:38:09;;;;;;;13.30;8.60;;;14.40;99.90;;;;;;4996687;28;20519;-84
2023/05/06 02:40:39;;;;;;;10.43;8.60;;;14.40;99.90;;;;;;4976601;28;20483;-85
2023/05/06 02:43:22;;;;;;;;;;;;;;;;;;;;;
2023/05/06 02:45:49;;;;;;;12.33;9.90;;;14.10;99.90;;;;;;4978306;28;20452;-84
2023/05/06 02:48:18;;;;;;;12.00;8.87;;;14.20;99.90;;;;;;4974677;28;20471;-83
2023/05/06 02:50:47;;;;;;;13.87;8.80;;;14.30;99.90;;;;;;4972696;28;20987;-84
2023/05/06 02:53:31;;;;;;;11.57;8.30;;;14.40;99.90;;;;;;4991355;28;20506;-83
2023/05/06 02:56:01;;;;;;;11.90;8.20;;;14.20;99.90;;;;;;4983195;28;20493;-83
2023/05/06 02:58:28;;;;;;;12.43;8.60;;;14.20;99.90;;;;;;4995654;28;20440;-82
2023/05/06 03:00:57;;;;;;;13.40;7.93;;;14.30;99.90;;;;;;4991882;28;20491;-81
2023/05/06 03:03:28;;;;;;;12.60;8.00;;;14.30;99.90;;;;;;4991215;28;20483;-83
2023/05/06 03:06:00;;;;;;;13.20;8.93;;;14.30;99.90;;;;;;4969163;28;20537;-83
2023/05/06 03:08:32;;;;;;;13.03;8.53;;;14.40;99.90;;;;;;4961325;28;20448;-84
2023/05/06 03:11:04;;;;;;;9.70;7.17;;;14.30;99.90;;;;;;4965934;28;20999;-83
2023/05/06 03:13:41;;;;;;;13.13;9.03;;;14.40;99.90;;;;;;4979942;28;20520;-83
2023/05/06 03:16:30;;;;;;;12.13;7.93;;;14.30;99.90;;;;;;4967218;28;21056;-83
2023/05/06 03:19:06;;;;;;;12.93;8.40;;;14.30;99.90;;;;;;4967122;28;20506;-82
2023/05/06 03:21:56;;;;;;;10.10;7.23;;;14.40;99.90;;;;;;4983231;28;20523;-84
2023/05/06 03:24:30;;;;;;;10.50;8.33;;;14.30;99.90;;;;;;4970114;28;22080;-84
2023/05/06 03:27:02;;;;;;;11.33;8.50;;;14.10;99.90;;;;;;4969403;28;20456;-84
2023/05/06 03:29:29;;;;;;;10.53;7.17;;;14.20;99.90;;;;;;4970324;28;20495;-83
2023/05/06 03:32:13;;;;;;;11.83;7.47;;;14.30;99.90;;;;;;4968499;28;20654;-83
2023/05/06 03:34:43;;;;;;;9.43;7.20;;;14.40;99.90;;;;;;4974097;28;20515;-83
2023/05/06 03:37:10;;;;;;;10.33;8.10;;;14.30;99.90;;;;;;4967212;28;20937;-83
2023/05/06 03:39:56;;;;;;;8.63;7.20;;;14.40;99.90;;;;;;4967105;28;20456;-82
2023/05/06 03:42:27;;;;;;;11.27;7.17;;;14.30;99.90;;;;;;4968140;28;20456;-82
2023/05/06 03:44:59;;;;;;;12.23;8.37;;;14.20;99.90;;;;;;4961646;28;20852;-82
2023/05/06 03:47:30;;;;;;;10.37;8.00;;;14.10;99.90;;;;;;4968860;28;21049;-84
2023/05/06 03:50:08;;;;;;;8.70;7.33;;;14.10;99.90;;;;;;4972840;28;20466;-83
2023/05/06 03:52:48;;;;;;;8.67;7.60;;;14.20;99.90;;;;;;4969308;28;20472;-83
2023/05/06 03:55:42;;;;;;;8.30;6.63;;;14.10;99.90;;;;;;4969581;28;20491;-84
2023/05/06 03:59:06;;;;;;;9.93;7.80;;;14.10;99.90;;;;;;4967787;28;20464;-83
2023/05/06 04:01:37;;;;;;;11.20;7.40;;;14.10;99.90;;;;;;4970144;28;21237;-83
2023/05/06 04:04:12;;;;;;;11.57;7.47;;;14.00;99.90;;;;;;4966023;28;20543;-84
2023/05/06 04:06:42;;;;;;;9.87;7.20;;;13.70;99.90;;;;;;4967063;28;20540;-82
2023/05/06 04:09:31;;;;;;;8.67;6.70;;;13.70;99.90;;;;;;4969491;28;20625;-83
2023/05/06 04:12:10;;;;;;;9.30;7.40;;;13.70;99.90;;;;;;4966990;28;20489;-82
2023/05/06 04:14:47;;;;;;;11.13;6.93;;;13.60;99.90;;;;;;4967771;28;20484;-81
2023/05/06 04:17:17;;;;;;;9.13;6.23;;;13.60;99.90;;;;;;4967648;28;20467;-83
2023/05/06 04:19:46;;;;;;;9.23;6.20;;;13.70;99.90;;;;;;4970060;28;20469;-83
2023/05/06 04:22:21;;;;;;;9.73;6.97;;;13.70;99.90;;;;;;4968507;28;20456;-83
2023/05/06 04:24:48;;;;;;;10.23;7.30;;;13.50;99.90;;;;;;4973617;28;21045;-84
2023/05/06 04:27:17;;;;;;;9.80;7.07;;;13.70;99.90;;;;;;4973052;28;20535;-83
2023/05/06 04:29:43;;;;;;;9.33;7.33;;;13.70;99.90;;;;;;4968988;28;20531;-84
2023/05/06 04:32:16;;;;;;;8.90;6.43;;;13.50;99.90;;;;;;4952344;28;20464;-83
2023/05/06 04:34:46;;;;;;;9.53;7.00;;;13.60;99.90;;;;;;4968748;28;20542;-83
2023/05/06 04:37:14;;;;;;;11.40;7.50;;;13.80;99.90;;;;;;4969360;28;20448;-83
2023/05/06 04:39:41;;;;;;;9.90;6.80;;;13.90;99.90;;;;;;4963646;28;20514;-83
2023/05/06 04:42:10;;;;;;;10.87;7.43;;;13.80;99.90;;;;;;4972780;28;21019;-83
2023/05/06 04:44:47;;;;;;;8.97;6.70;;;13.60;99.90;;;;;;4990356;28;20451;-83
2023/05/06 04:47:23;;;;;;;11.27;7.40;;;13.60;99.90;;;;;;4990988;28;20479;-84
2023/05/06 04:49:52;;;;;;;7.63;5.93;;;13.80;99.90;;;;;;4984818;28;20480;-83
2023/05/06 04:52:25;;;;;;;9.10;6.63;;;13.90;99.90;;;;;;4990562;28;20516;-84
2023/05/06 04:54:57;;;;;;;9.97;7.80;;;13.80;99.90;;;;;;4987652;28;20475;-82
2023/05/06 04:57:24;;;;;;;9.37;6.90;;;14.00;99.90;;;;;;4983383;28;20520;-80
2023/05/06 04:59:52;;;;;;;9.23;7.90;;;14.00;99.90;;;;;;4983113;28;20483;-83
2023/05/06 05:02:25;;;;;;;10.73;7.83;;;14.00;99.90;;;;;;4989650;28;20463;-84
2023/05/06 05:04:55;;;;;;;11.67;7.37;;;14.00;99.90;;;;;;4987925;28;20515;-83
2023/05/06 05:07:22;;;;;;;11.77;7.50;;;14.00;99.90;;;;;;4985930;28;20816;-84
2023/05/06 05:09:53;;;;;;;12.50;8.10;;;14.00;99.90;;;;;;4979461;28;20682;-84
2023/05/06 05:12:27;;;;;;;12.10;8.27;;;14.00;99.90;;;;;;4983954;28;20473;-83
2023/05/06 05:15:11;;;;;;;13.17;8.10;;;13.90;99.90;;;;;;4980390;28;20468;-83
2023/05/06 05:17:40;;;;;;;11.17;7.30;;;13.70;99.90;;;;;;4981697;28;20494;-84
2023/05/06 05:20:08;;;;;;;12.10;8.50;;;13.70;99.90;;;;;;4986758;28;20552;-83
2023/05/06 05:22:38;;;;;;;10.30;6.90;;;13.80;99.90;;;;;;4985192;28;20625;-83
2023/05/06 05:25:07;;;;;;;10.50;7.67;;;13.80;99.90;;;;;;4980582;28;20453;-82
2023/05/06 05:27:41;;;;;;;12.13;8.27;;;13.60;99.90;;;;;;4980376;28;20561;-82
2023/05/06 05:30:21;;;;;;;10.40;7.50;;;13.60;99.90;;;;;;4982414;28;20593;-85
2023/05/06 05:32:55;;;;;;;9.97;7.23;;;13.60;99.90;;;;;;4972742;28;20452;-83
2023/05/06 05:35:24;;;;;;;8.60;6.50;;;13.40;99.90;;;;;;4987298;28;20506;-83
2023/05/06 05:37:53;;;;;;;13.50;9.33;;;13.50;99.90;;;;;;4971669;28;20530;-84
2023/05/06 05:40:25;;;;;;;10.90;7.27;;;13.60;99.90;;;;;;4972049;28;21053;-82
2023/05/06 05:42:54;;;;;;;9.47;7.10;;;13.60;99.90;;;;;;4966983;28;20464;-83
2023/05/06 05:45:25;;;;;;;11.17;7.90;;;13.60;99.90;;;;;;4975088;28;20456;-84
2023/05/06 05:47:57;;;;;;;10.90;7.50;;;13.70;99.90;;;;;;4975391;28;20460;-84
2023/05/06 05:50:27;;;;;;;10.57;6.97;;;14.00;99.90;;;;;;4987133;28;20611;-84
2023/05/06 05:52:58;;;;;;;9.73;8.30;;;14.30;99.90;;;;;;4977242;28;20471;-84
2023/05/06 05:55:28;;;;;;;10.37;6.97;;;14.40;99.90;;;;;;4978737;28;20460;-84
2023/05/06 05:58:08;;;;;;;10.30;7.70;;;14.40;99.90;;;;;;4970735;28;20503;-83
2023/05/06 06:00:41;;;;;;;7.80;6.47;;;14.50;99.90;;;;;;4974840;28;20499;-83
2023/05/06 06:03:16;;;;;;;10.00;6.93;;;14.50;99.90;;;;;;4971403;28;20456;-82
2023/05/06 06:05:53;;;;;;;8.90;6.70;;;14.70;99.90;;;;;;4975597;28;20495;-83
2023/05/06 06:08:42;;;;;;;9.93;8.10;;;14.60;99.90;;;;;;4967801;28;20469;-81
2023/05/06 06:11:17;;;;;;;6.00;5.40;;;14.80;99.90;;;;;;4971040;28;20539;-83
2023/05/06 06:13:49;;;;;;;8.40;6.70;;;14.90;99.90;;;;;;4973952;28;20535;-84
2023/05/06 06:16:32;;;;;;;8.23;6.60;;;14.90;99.90;;;;;;4968833;28;20685;-85
2023/05/06 06:19:15;;;;;;;8.70;6.83;;;15.10;99.90;;;;;;4971953;28;20498;-84
2023/05/06 06:22:04;;;;;;;8.80;6.60;;;15.20;99.90;;;;;;4973944;28;20555;-84
2023/05/06 06:24:42;;;;;;;7.40;5.47;;;15.20;99.90;;;;;;4974076;28;20887;-84
2023/05/06 06:27:19;;;;;;;7.67;6.47;;;15.20;99.90;;;;;;4977505;28;20452;-84
2023/05/06 06:30:25;;;;;;;8.63;5.93;;;15.10;99.90;;;;;;4970474;28;20566;-83
2023/05/06 06:33:14;;;;;;;8.27;5.47;;;15.30;99.90;;;;;;4968756;28;20472;-82
2023/05/06 06:36:01;;;;;;;7.60;5.83;;;15.40;99.90;;;;;;4975020;28;20526;-81
2023/05/06 06:38:37;;;;;;;6.67;5.40;;;15.40;99.90;;;;;;4976370;28;20467;-84
2023/05/06 06:41:19;;;;;;;8.73;7.17;;;15.40;99.90;;;;;;4972583;28;20480;-84
2023/05/06 06:44:01;;;;;;;6.57;5.47;;;15.50;99.90;;;;;;4953035;28;20511;-85
2023/05/06 06:46:37;;;;;;;11.17;6.20;;;15.70;99.90;;;;;;4973775;28;20456;-82
2023/05/06 06:49:18;;;;;;;8.10;6.20;;;15.80;99.90;;;;;;4972799;28;20475;-84
2023/05/06 06:51:56;;;;;;;6.27;5.67;;;15.80;99.90;;;;;;4966522;28;20503;-84
2023/05/06 06:54:53;;;;;;;6.50;5.80;;;15.80;99.90;;;;;;4963243;28;20889;-83
2023/05/06 06:57:41;;;;;;;7.17;6.47;;;15.80;99.90;;;;;;4971149;28;21253;-83
2023/05/06 07:00:22;;;;;;;7.63;6.23;;;16.20;99.90;;;;;;4960424;28;21291;-83
2023/05/06 07:03:18;;;;;;;7.00;6.00;;;16.10;99.90;;;;;;4987602;28;20456;-83
2023/05/06 07:05:59;;;;;;;6.33;5.73;;;16.20;99.90;;;;;;4989010;28;20701;-83
2023/05/06 07:08:29;;;;;;;6.20;5.60;;;16.40;99.90;;;;;;4989690;28;20459;-84
2023/05/06 07:11:20;;;;;;;;;;;;;;;;;;;;;
2023/05/06 07:13:57;;;;;;;7.13;5.87;;;16.60;99.90;;;;;;4972933;28;20453;-83
2023/05/06 07:16:24;;;;;;;6.23;5.47;;;17.00;99.90;;;;;;4974679;28;20567;-82
2023/05/06 07:18:54;;;;;;;5.83;5.20;;;17.20;99.90;;;;;;4976381;28;20471;-84
2023/05/06 07:21:23;;;;;;;5.47;4.97;;;17.20;99.90;;;;;;4973525;28;20498;-83
2023/05/06 07:24:24;;;;;;;5.40;3.97;;;17.50;99.90;;;;;;4973429;28;20436;-83
2023/05/06 07:27:00;;;;;;;5.00;4.03;;;17.80;99.30;;;;;;4967598;28;20483;-83
2023/05/06 07:29:35;;;;;;;4.23;3.93;;;18.20;98.90;;;;;;4970509;28;20456;-83
2023/05/06 07:32:05;;;;;;;5.20;4.23;;;18.70;98.00;;;;;;4974755;28;20640;-85
2023/05/06 07:34:50;;;;;;;4.13;3.70;;;19.10;96.80;;;;;;4976159;28;20580;-84
2023/05/06 07:37:28;;;;;;;4.10;3.73;;;19.20;96.50;;;;;;4977793;28;21033;-84
2023/05/06 07:40:28;;;;;;;4.93;4.27;;;19.80;96.00;;;;;;4961693;28;20849;-84
2023/05/06 07:43:20;;;;;;;3.80;3.17;;;21.30;92.70;;;;;;4974283;28;21062;-84
2023/05/06 07:46:01;;;;;;;4.97;3.80;;;23.60;86.00;;;;;;4963989;28;20455;-84
2023/05/06 07:48:58;;;;;;;4.40;4.10;;;25.60;76.80;;;;;;4969520;28;21471;-84
2023/05/06 07:51:25;;;;;;;4.20;3.67;;;27.10;69.60;;;;;;4967997;28;20476;-83
2023/05/06 07:54:15;;;;;;;2.93;2.73;;;28.20;63.40;;;;;;4985390;28;20527;-83
2023/05/06 07:56:51;;;;;;;3.90;3.50;;;28.20;59.30;;;;;;4971317;28;20515;-83
2023/05/06 07:59:23;;;;;;;3.03;2.83;;;28.30;58.50;;;;;;4982950;28;20468;-84
2023/05/06 08:01:55;;;;;;;3.43;2.67;;;28.30;58.60;;;;;;4972764;28;20627;-84
2023/05/06 08:04:24;;;;;;;3.63;2.40;;;28.70;57.00;;;;;;4996410;28;20456;-83
2023/05/06 08:07:03;;;;;;;2.67;2.20;;;29.80;55.10;;;;;;4986557;28;20464;-83
2023/05/06 08:09:30;;;;;;;2.90;2.60;;;30.30;53.40;;;;;;4989737;28;20463;-83
2023/05/06 08:12:20;;;;;;;3.60;3.40;;;30.20;53.20;;;;;;4994252;28;20458;-83
2023/05/06 08:14:47;;;;;;;3.60;3.30;;;30.70;53.00;;;;;;4989367;28;20637;-85
2023/05/06 08:17:23;;;;;;;2.77;2.53;;;31.40;51.50;;;;;;4996457;28;20621;-85
2023/05/06 08:20:05;;;;;;;2.20;2.10;;;31.50;50.20;;;;;;4977238;28;21141;-82
2023/05/06 08:22:40;;;;;;;2.40;2.20;;;31.60;48.40;;;;;;4984996;28;20562;-85
2023/05/06 08:25:18;;;;;;;2.00;1.80;;;31.50;48.50;;;;;;4974318;28;20464;-85
2023/05/06 08:28:01;;;;;;;1.87;1.73;;;31.70;47.50;;;;;;4972912;28;20456;-84
2023/05/06 08:30:33;;;;;;;2.20;2.00;;;30.90;47.40;;;;;;4985766;28;20507;-82
2023/05/06 08:33:07;;;;;;;3.40;2.30;;;30.60;48.40;;;;;;4987934;28;20467;-80
2023/05/06 08:35:35;;;;;;;3.30;3.10;;;30.50;49.30;;;;;;4996067;28;20506;-82
2023/05/06 08:38:14;;;;;;;2.30;2.20;;;30.60;49.90;;;;;;4988508;28;20461;-82
2023/05/06 08:41:11;;;;;;;2.67;2.47;;;30.50;49.70;;;;;;4991416;28;20494;-83
2023/05/06 08:43:49;;;;;;;1.00;0.87;;;30.90;48.30;;;;;;4995451;28;20469;-83
2023/05/06 08:46:50;;;;;;;0.97;0.87;;;30.60;45.60;;;;;;4992184;28;20511;-83
2023/05/06 08:49:52;;;;;;;2.20;2.00;;;30.70;44.90;;;;;;4990973;28;20460;-82
2023/05/06 08:56:20;;;;;;;1.83;1.73;;;30.80;47.30;;;;;;4988823;28;20468;-85
2023/05/06 09:02:13;;;;;;;1.77;1.67;;;30.80;46.70;;;;;;4954863;28;20483;-83
2023/05/06 09:05:10;;;;;;;4.13;2.00;;;30.40;46.70;;;;;;4979140;28;20977;-85
2023/05/06 09:08:13;;;;;;;;;;;;;;;;;;;;;
2023/05/06 09:11:29;;;;;;;1.80;1.70;;;30.20;47.70;;;;;;4974853;28;20487;-84
2023/05/06 09:14:31;;;;;;;2.13;1.93;;;30.60;47.20;;;;;;4975768;28;20444;-84
2023/05/06 09:20:55;;;;;;;2.20;2.00;;;29.80;47.50;;;;;;4957977;28;20516;-84
2023/05/06 09:23:50;;;;;;;1.90;1.80;;;29.30;48.90;;;;;;4987922;28;21213;-85
2023/05/06 09:26:36;;;;;;;2.53;2.27;;;28.90;49.50;;;;;;4978310;28;20464;-85
2023/05/06 09:32:36;;;;;;;2.10;1.80;;;28.20;50.70;;;;;;4978926;28;20504;-84
2023/05/06 09:35:34;;;;;;;1.90;1.80;;;28.60;50.10;;;;;;4984564;28;20459;-84
2023/05/06 09:38:22;;;;;;;2.60;1.83;;;29.30;48.20;;;;;;4988027;28;20452;-84
2023/05/06 09:41:29;;;;;;;1.80;1.70;;;29.10;48.10;;;;;;4976044;28;20514;-83
2023/05/06 09:44:23;;;;;;;1.70;1.60;;;28.70;48.90;;;;;;4970251;28;20452;-83
2023/05/06 09:51:10;;;;;;;1.70;1.60;;;28.70;49.50;;;;;;4952659;28;20492;-84
2023/05/06 09:54:22;;;;;;;1.30;1.20;;;28.90;48.80;;;;;;4973249;28;20532;-83
2023/05/06 10:01:41;;;;;;;0.83;0.80;;;28.50;48.80;;;;;;4959416;28;20467;-81
2023/05/06 10:04:43;;;;;;;1.30;1.20;;;28.60;47.90;;;;;;4970897;28;20593;-82
2023/05/06 10:11:31;;;;;;;1.47;1.10;;;28.00;48.60;;;;;;4941510;28;20525;-83
2023/05/06 10:14:41;;;;;;;1.40;1.10;;;28.10;48.40;;;;;;4982526;28;20492;-82
2023/05/06 10:17:28;;;;;;;1.40;1.20;;;27.80;48.80;;;;;;4976291;28;20483;-82
2023/05/06 10:20:16;;;;;;;0.90;0.90;;;27.60;48.80;;;;;;4980533;28;20510;-81
2023/05/06 10:26:57;;;;;;;1.23;1.17;;;27.30;49.20;;;;;;4986750;28;20436;-83
2023/05/06 10:29:55;;;;;;;1.70;1.10;;;27.40;49.30;;;;;;4981074;28;20450;-82
2023/05/06 10:32:49;;;;;;;2.03;1.37;;;27.70;49.10;;;;;;4995784;28;20436;-83
2023/05/06 10:36:18;;;;;;;1.17;1.00;;;27.50;49.10;;;;;;5003943;28;20444;-83
2023/05/06 10:39:09;;;;;;;1.30;0.97;;;27.40;49.40;;;;;;5010159;28;20523;-84
2023/05/06 10:42:07;;;;;;;2.10;1.17;;;27.00;49.40;;;;;;4990099;28;20480;-83
2023/05/06 10:45:25;;;;;;;1.47;0.83;;;26.80;50.30;;;;;;4936166;29;20515;-83
2023/05/06 10:48:24;;;;;;;1.50;1.00;;;26.60;50.30;;;;;;4924736;29;20476;-82
2023/05/06 10:51:52;;;;;;;2.30;2.10;;;27.20;50.00;;;;;;4929409;29;20449;-83
2023/05/06 11:02:59;;;;;;;1.20;1.10;;;28.40;47.50;;;;;;4930513;29;20474;-84
2023/05/06 11:10:10;;;;;;;;;;;;;;;;;;;;;
2023/05/06 11:16:49;;;;;;;1.10;1.00;;;27.60;48.60;;;;;;4910388;29;20868;-84
2023/05/06 11:20:05;;;;;;;1.20;1.10;;;26.90;49.30;;;;;;4866003;29;20528;-83
2023/05/06 11:23:27;;;;;;;1.73;1.63;;;26.30;50.60;;;;;;4865079;29;20504;-83
2023/05/06 11:26:33;;;;;;;;;;;;;;;;;;;;;
2023/05/06 11:29:40;;;;;;;;;;;;;;;;;;;;;
2023/05/06 11:32:24;;;;;;;0.90;0.90;;;25.30;52.60;;;;;;4859924;29;20444;-82
2023/05/06 11:35:17;;;;;;;2.60;1.10;;;25.20;52.70;;;;;;4868757;29;20546;-83
2023/05/06 11:38:51;;;;;;;1.73;1.17;;;25.80;52.90;;;;;;4877489;29;20615;-83
2023/05/06 11:42:40;;;;;;;1.23;1.00;;;26.40;51.40;;;;;;4869372;29;20589;-83
2023/05/06 11:46:07;;;;;;;1.20;1.10;;;26.80;51.00;;;;;;4868664;29;21053;-83
2023/05/06 11:49:11;;;;;;;1.20;1.10;;;26.40;50.80;;;;;;4876430;29;20895;-83
2023/05/06 11:52:24;;;;;;;1.53;1.00;;;25.80;51.70;;;;;;4875081;29;20481;-83
2023/05/06 11:55:25;;;;;;;1.10;0.90;;;26.50;50.70;;;;;;4917391;29;20821;-84
2023/05/06 11:58:13;;;;;;;0.73;0.70;;;26.70;50.40;;;;;;4971806;28;20519;-84
2023/05/06 12:01:26;;;;;;;1.90;1.10;;;26.60;50.30;;;;;;4981992;28;20484;-83
2023/05/06 12:04:37;;;;;;;1.40;1.30;;;26.60;50.50;;;;;;4950783;28;20511;-83
2023/05/06 12:07:25;;;;;;;1.27;0.87;;;26.60;50.10;;;;;;4945190;28;20507;-84
2023/05/06 12:10:25;;;;;;;0.70;0.70;;;26.10;50.50;;;;;;4965163;28;20483;-82
2023/05/06 12:13:23;;;;;;;3.10;1.23;;;25.30;51.80;;;;;;4965747;28;20472;-83
2023/05/06 12:16:14;;;;;;;1.07;1.00;;;25.40;52.40;;;;;;4968267;28;20886;-83
2023/05/06 12:19:07;;;;;;;1.93;0.90;;;25.60;52.00;;;;;;4973628;28;20501;-83
2023/05/06 12:22:37;;;;;;;2.73;1.10;;;26.10;50.90;;;;;;4999425;28;20483;-83
2023/05/06 12:25:27;;;;;;;1.40;0.97;;;25.90;50.80;;;;;;4982591;28;20459;-83
2023/05/06 12:28:52;;;;;;;1.83;1.10;;;26.70;49.20;;;;;;4979149;28;20476;-82
2023/05/06 12:32:13;;;;;;;0.77;0.77;;;26.10;50.20;;;;;;4921721;29;20594;-82
2023/05/06 12:35:14;;;;;;;;;;;;;;;;;;;;;
2023/05/06 12:38:22;;;;;;;0.60;0.53;;;26.80;48.70;;;;;;4924051;29;20493;-84
2023/05/06 12:41:09;;;;;;;1.00;0.80;;;26.20;49.20;;;;;;4924405;29;20586;-84
2023/05/06 12:44:26;;;;;;;1.00;0.70;;;25.90;49.70;;;;;;4972634;28;20436;-85
2023/05/06 12:47:27;;;;;;;2.03;0.73;;;25.80;50.20;;;;;;4907482;29;20457;-82
2023/05/06 12:50:26;;;;;;;2.53;1.57;;;25.70;50.30;;;;;;4921555;29;20878;-82
2023/05/06 12:53:02;;;;;;;1.10;1.10;;;25.20;51.30;;;;;;4967521;28;20496;-82
2023/05/06 12:59:21;;;;;;;0.70;0.70;;;25.10;52.00;;;;;;4975420;28;20457;-82
2023/05/06 13:02:58;;;;;;;1.27;0.90;;;24.90;52.10;;;;;;4973453;28;20480;-83
2023/05/06 13:06:19;;;;;;;2.20;0.70;;;25.20;52.00;;;;;;4988827;28;20467;-83
2023/05/06 13:09:17;;;;;;;1.00;1.00;;;25.20;51.60;;;;;;4964647;28;20439;-84
2023/05/06 13:12:13;;;;;;;1.07;0.77;;;25.10;51.80;;;;;;4976814;28;20491;-84
2023/05/06 13:15:28;;;;;;;1.53;0.80;;;24.90;52.60;;;;;;4970880;28;20466;-84
2023/05/06 13:18:23;;;;;;;1.10;1.00;;;25.00;52.50;;;;;;4957225;28;20490;-84
2023/05/06 13:24:50;;;;;;;1.77;1.00;;;24.60;52.60;;;;;;4972131;28;21014;-84
2023/05/06 13:27:39;;;;;;;2.33;1.10;;;24.40;53.10;;;;;;4973490;28;20468;-84
2023/05/06 13:30:26;;;;;;;1.10;0.80;;;24.40;53.40;;;;;;4969938;28;20493;-84
2023/05/06 13:33:24;;;;;;;1.83;0.80;;;24.30;53.10;;;;;;4959625;28;20546;-83
2023/05/06 13:36:38;;;;;;;1.10;0.97;;;24.20;53.60;;;;;;4993717;28;20456;-83
2023/05/06 13:39:51;;;;;;;1.90;0.80;;;24.00;54.10;;;;;;4962444;28;20455;-84
2023/05/06 13:42:54;;;;;;;1.30;1.00;;;23.90;54.40;;;;;;4986753;28;20523;-84
2023/05/06 13:45:28;;;;;;;1.30;1.17;;;23.90;54.80;;;;;;4971626;28;20542;-84
2023/05/06 13:47:57;;;;;;;1.10;0.90;;;24.20;54.20;;;;;;4976611;28;20562;-84
2023/05/06 13:50:27;;;;;;;1.27;0.87;;;23.80;54.80;;;;;;4972824;28;20481;-82
2023/05/06 13:52:56;;;;;;;2.80;2.03;;;23.60;55.40;;;;;;4983999;28;20484;-84
2023/05/06 13:55:30;;;;;;;1.37;1.00;;;23.40;56.10;;;;;;4973690;28;20465;-84
2023/05/06 13:58:33;;;;;;;1.57;1.00;;;23.40;56.90;;;;;;4960983;28;20494;-84
2023/05/06 14:01:12;;;;;;;1.10;0.80;;;23.80;57.20;;;;;;4969862;28;20503;-83
2023/05/06 14:03:47;;;;;;;1.00;0.90;;;23.00;61.30;;;;;;4974677;28;20543;-84
2023/05/06 14:06:17;;;;;;;2.37;1.00;;;22.50;66.50;;;;;;4955888;28;20496;-83
2023/05/06 14:08:48;;;;;;;1.50;1.30;;;22.00;73.20;;;;;;4977792;28;20452;-83
2023/05/06 14:11:20;;;;;;;1.53;1.07;;;21.70;81.00;;;;;;4975114;28;20477;-82
2023/05/06 14:13:47;;;;;;;2.00;1.50;;;21.20;86.30;;;;;;4985888;28;20491;-82
2023/05/06 14:16:27;;;;;;;1.37;1.03;;;20.60;91.80;;;;;;4979324;28;20475;-83
2023/05/06 14:19:02;;;;;;;1.63;1.00;;;20.20;94.50;;;;;;4970162;28;20493;-84
2023/05/06 14:21:37;;;;;;;1.37;1.17;;;19.90;97.30;;;;;;4970157;28;20479;-84
2023/05/06 14:24:12;;;;;;;1.93;1.40;;;19.90;98.90;;;;;;4975983;28;20488;-83
2023/05/06 14:26:48;;;;;;;2.37;1.10;;;19.90;99.90;;;;;;4975404;28;20464;-83
2023/05/06 14:29:22;;;;;;;1.17;1.07;;;20.10;99.70;;;;;;4975322;28;20452;-83
2023/05/06 14:31:58;;;;;;;2.00;0.70;;;20.20;98.90;;;;;;4971876;28;21448;-84
2023/05/06 14:34:41;;;;;;;1.23;1.00;;;20.10;98.50;;;;;;4976842;28;20551;-84
2023/05/06 14:37:10;;;;;;;1.00;0.90;;;20.10;98.70;;;;;;4971261;28;20488;-84
2023/05/06 14:39:38;;;;;;;2.07;1.17;;;20.10;98.10;;;;;;4976137;28;20479;-84
2023/05/06 14:42:16;;;;;;;1.63;0.83;;;20.10;97.80;;;;;;4974818;28;20492;-83
2023/05/06 14:45:07;;;;;;;1.00;0.90;;;20.10;97.80;;;;;;4976437;28;20449;-83
2023/05/06 14:47:58;;;;;;;2.97;0.90;;;20.20;98.40;;;;;;4977577;28;20542;-83
2023/05/06 14:50:32;;;;;;;1.60;1.27;;;20.20;97.90;;;;;;4976202;28;20510;-84
2023/05/06 14:53:01;;;;;;;1.10;0.87;;;20.20;98.30;;;;;;4974900;28;20460;-83
2023/05/06 14:55:39;;;;;;;2.13;1.40;;;20.30;97.80;;;;;;4977337;28;20999;-84
2023/05/06 14:58:13;;;;;;;1.47;0.97;;;20.40;97.30;;;;;;4968831;28;20632;-84
2023/05/06 15:01:06;;;;;;;1.13;0.87;;;20.60;97.50;;;;;;4956256;28;20496;-82
2023/05/06 15:03:49;;;;;;;1.40;0.90;;;20.60;97.10;;;;;;4970592;28;20971;-83
2023/05/06 15:06:17;;;;;;;1.37;1.07;;;20.60;97.30;;;;;;4972684;28;20475;-82
2023/05/06 15:08:58;;;;;;;1.00;0.80;;;20.60;96.00;;;;;;4988366;23;20517;-82
2023/05/06 15:11:48;;;;;;;1.20;1.10;;;20.70;95.90;;;;;;4956281;28;20477;-82
2023/05/06 15:14:18;;;;;;;1.63;0.80;;;20.70;95.80;;;;;;4958858;28;20457;-82
2023/05/06 15:17:02;;;;;;;1.20;1.10;;;20.70;95.80;;;;;;4975975;28;20563;-83
2023/05/06 15:19:46;;;;;;;1.63;1.53;;;20.70;96.80;;;;;;4969245;28;20819;-84
2023/05/06 15:22:19;;;;;;;5.13;2.57;;;20.70;97.30;;;;;;4952121;28;20473;-84
2023/05/06 15:24:49;;;;;;;0.80;0.80;;;20.80;95.90;;;;;;4970787;28;20453;-84